sensor_id;sensor_type;location;lat;lon;timestamp;P1;durP1;ratioP1;P2;durP2;ratioP2
32186;SDS011;18686;53.084;8.872;2023-06-26T00:01:28;7.15;;;6.45;;
32186;SDS011;18686;53.084;8.872;2023-06-26T00:03:58;9.88;;;7.10;;
32186;SDS011;18686;53.084;8.872;2023-06-26T00:06:26;6.90;;;6.30;;
32186;SDS011;18686;53.084;8.872;2023-06-26T00:08:55;7.75;;;6.75;;
32186;SDS011;18686;53.084;8.872;2023-06-26T00:11:26;8.68;;;7.30;;
32186;SDS011;18686;53.084;8.872;2023-06-26T00:13:57;7.43;;;6.70;;
32186;SDS011;18686;53.084;8.872;2023-06-26T00:16:26;8.55;;;7.70;;
32186;SDS011;18686;53.084;8.872;2023-06-26T00:18:54;8.85;;;7.47;;
32186;SDS011;18686;53.084;8.872;2023-06-26T00:21:23;8.38;;;7.47;;
32186;SDS011;18686;53.084;8.872;2023-06-26T00:23:51;9.15;;;7.50;;
32186;SDS011;18686;53.084;8.872;2023-06-26T00:26:20;8.70;;;6.75;;
32186;SDS011;18686;53.084;8.872;2023-06-26T00:28:49;8.00;;;7.20;;
32186;SDS011;18686;53.084;8.872;2023-06-26T00:31:19;10.93;;;7.13;;
32186;SDS011;18686;53.084;8.872;2023-06-26T00:33:47;10.43;;;7.65;;
32186;SDS011;18686;53.084;8.872;2023-06-26T00:36:15;8.18;;;7.28;;
32186;SDS011;18686;53.084;8.872;2023-06-26T00:38:44;7.90;;;7.15;;
32186;SDS011;18686;53.084;8.872;2023-06-26T00:41:12;10.73;;;7.30;;
32186;SDS011;18686;53.084;8.872;2023-06-26T00:43:40;8.43;;;7.53;;
32186;SDS011;18686;53.084;8.872;2023-06-26T00:46:12;8.77;;;7.50;;
32186;SDS011;18686;53.084;8.872;2023-06-26T00:48:41;8.10;;;7.30;;
32186;SDS011;18686;53.084;8.872;2023-06-26T00:51:12;9.75;;;7.20;;
32186;SDS011;18686;53.084;8.872;2023-06-26T00:53:41;7.72;;;7.03;;
32186;SDS011;18686;53.084;8.872;2023-06-26T00:56:10;10.25;;;7.60;;
32186;SDS011;18686;53.084;8.872;2023-06-26T00:58:39;13.68;;;7.47;;
32186;SDS011;18686;53.084;8.872;2023-06-26T01:01:07;8.20;;;7.43;;
32186;SDS011;18686;53.084;8.872;2023-06-26T01:03:43;11.15;;;7.25;;
32186;SDS011;18686;53.084;8.872;2023-06-26T01:06:13;8.43;;;7.63;;
32186;SDS011;18686;53.084;8.872;2023-06-26T01:08:42;8.57;;;7.78;;
32186;SDS011;18686;53.084;8.872;2023-06-26T01:11:12;9.20;;;8.30;;
32186;SDS011;18686;53.084;8.872;2023-06-26T01:13:41;11.15;;;8.55;;
32186;SDS011;18686;53.084;8.872;2023-06-26T01:16:11;9.63;;;8.48;;
32186;SDS011;18686;53.084;8.872;2023-06-26T01:18:40;9.45;;;8.55;;
32186;SDS011;18686;53.084;8.872;2023-06-26T01:21:10;9.13;;;7.65;;
32186;SDS011;18686;53.084;8.872;2023-06-26T01:23:44;12.27;;;8.52;;
32186;SDS011;18686;53.084;8.872;2023-06-26T01:26:26;10.23;;;8.30;;
32186;SDS011;18686;53.084;8.872;2023-06-26T01:28:56;9.63;;;8.73;;
32186;SDS011;18686;53.084;8.872;2023-06-26T01:31:26;9.40;;;8.50;;
32186;SDS011;18686;53.084;8.872;2023-06-26T01:33:57;10.15;;;8.73;;
32186;SDS011;18686;53.084;8.872;2023-06-26T01:36:26;9.55;;;8.63;;
32186;SDS011;18686;53.084;8.872;2023-06-26T01:38:55;10.38;;;8.82;;
32186;SDS011;18686;53.084;8.872;2023-06-26T01:41:23;9.85;;;8.80;;
32186;SDS011;18686;53.084;8.872;2023-06-26T01:44:06;9.20;;;8.30;;
32186;SDS011;18686;53.084;8.872;2023-06-26T01:46:47;9.30;;;8.40;;
32186;SDS011;18686;53.084;8.872;2023-06-26T01:49:24;10.30;;;8.70;;
32186;SDS011;18686;53.084;8.872;2023-06-26T01:52:00;8.70;;;7.78;;
32186;SDS011;18686;53.084;8.872;2023-06-26T01:54:41;9.38;;;8.50;;
32186;SDS011;18686;53.084;8.872;2023-06-26T01:57:14;10.82;;;9.70;;
32186;SDS011;18686;53.084;8.872;2023-06-26T01:59:47;11.85;;;8.77;;
32186;SDS011;18686;53.084;8.872;2023-06-26T02:02:15;10.68;;;8.80;;
32186;SDS011;18686;53.084;8.872;2023-06-26T02:04:44;9.60;;;8.70;;
32186;SDS011;18686;53.084;8.872;2023-06-26T02:07:14;9.70;;;8.73;;
32186;SDS011;18686;53.084;8.872;2023-06-26T02:09:43;10.57;;;9.50;;
32186;SDS011;18686;53.084;8.872;2023-06-26T02:12:11;9.10;;;8.18;;
32186;SDS011;18686;53.084;8.872;2023-06-26T02:14:39;11.63;;;9.15;;
32186;SDS011;18686;53.084;8.872;2023-06-26T02:17:09;9.75;;;8.23;;
32186;SDS011;18686;53.084;8.872;2023-06-26T02:19:37;9.90;;;8.90;;
32186;SDS011;18686;53.084;8.872;2023-06-26T02:22:13;10.32;;;9.32;;
32186;SDS011;18686;53.084;8.872;2023-06-26T02:24:42;9.43;;;8.50;;
32186;SDS011;18686;53.084;8.872;2023-06-26T02:27:10;10.35;;;9.35;;
32186;SDS011;18686;53.084;8.872;2023-06-26T02:29:39;10.82;;;9.30;;
32186;SDS011;18686;53.084;8.872;2023-06-26T02:32:09;9.50;;;8.60;;
32186;SDS011;18686;53.084;8.872;2023-06-26T02:34:37;9.80;;;8.38;;
32186;SDS011;18686;53.084;8.872;2023-06-26T02:37:06;11.35;;;8.70;;
32186;SDS011;18686;53.084;8.872;2023-06-26T02:39:34;10.48;;;8.93;;
32186;SDS011;18686;53.084;8.872;2023-06-26T02:42:04;10.57;;;8.57;;
32186;SDS011;18686;53.084;8.872;2023-06-26T02:44:33;9.23;;;8.32;;
32186;SDS011;18686;53.084;8.872;2023-06-26T02:47:01;9.45;;;8.52;;
32186;SDS011;18686;53.084;8.872;2023-06-26T02:49:31;11.32;;;9.05;;
32186;SDS011;18686;53.084;8.872;2023-06-26T02:51:59;9.95;;;8.95;;
32186;SDS011;18686;53.084;8.872;2023-06-26T02:54:28;11.52;;;9.25;;
32186;SDS011;18686;53.084;8.872;2023-06-26T02:57:02;10.52;;;9.27;;
32186;SDS011;18686;53.084;8.872;2023-06-26T02:59:31;9.55;;;8.50;;
32186;SDS011;18686;53.084;8.872;2023-06-26T03:02:00;10.30;;;9.23;;
32186;SDS011;18686;53.084;8.872;2023-06-26T03:04:35;10.85;;;8.73;;
32186;SDS011;18686;53.084;8.872;2023-06-26T03:07:07;10.45;;;8.93;;
32186;SDS011;18686;53.084;8.872;2023-06-26T03:09:37;10.05;;;8.38;;
32186;SDS011;18686;53.084;8.872;2023-06-26T03:12:06;11.40;;;8.70;;
32186;SDS011;18686;53.084;8.872;2023-06-26T03:14:35;9.80;;;8.57;;
32186;SDS011;18686;53.084;8.872;2023-06-26T03:17:03;10.43;;;8.82;;
32186;SDS011;18686;53.084;8.872;2023-06-26T03:19:36;10.95;;;8.70;;
32186;SDS011;18686;53.084;8.872;2023-06-26T03:22:13;9.73;;;8.55;;
32186;SDS011;18686;53.084;8.872;2023-06-26T03:24:43;10.10;;;9.10;;
32186;SDS011;18686;53.084;8.872;2023-06-26T03:27:12;10.02;;;8.43;;
32186;SDS011;18686;53.084;8.872;2023-06-26T03:29:44;9.38;;;8.55;;
32186;SDS011;18686;53.084;8.872;2023-06-26T03:32:12;9.35;;;8.40;;
32186;SDS011;18686;53.084;8.872;2023-06-26T03:34:42;9.18;;;8.05;;
32186;SDS011;18686;53.084;8.872;2023-06-26T03:37:10;9.52;;;8.52;;
32186;SDS011;18686;53.084;8.872;2023-06-26T03:39:38;10.32;;;8.05;;
32186;SDS011;18686;53.084;8.872;2023-06-26T03:42:07;9.10;;;7.93;;
32186;SDS011;18686;53.084;8.872;2023-06-26T03:44:36;8.75;;;7.85;;
32186;SDS011;18686;53.084;8.872;2023-06-26T03:47:05;11.43;;;8.13;;
32186;SDS011;18686;53.084;8.872;2023-06-26T03:49:34;10.95;;;8.23;;
32186;SDS011;18686;53.084;8.872;2023-06-26T03:52:05;9.75;;;8.40;;
32186;SDS011;18686;53.084;8.872;2023-06-26T03:54:34;12.40;;;8.45;;
32186;SDS011;18686;53.084;8.872;2023-06-26T03:57:02;13.02;;;9.13;;
32186;SDS011;18686;53.084;8.872;2023-06-26T03:59:30;9.70;;;8.15;;
32186;SDS011;18686;53.084;8.872;2023-06-26T04:01:59;8.88;;;7.45;;
32186;SDS011;18686;53.084;8.872;2023-06-26T04:04:27;13.48;;;8.27;;
32186;SDS011;18686;53.084;8.872;2023-06-26T04:06:57;8.80;;;7.35;;
32186;SDS011;18686;53.084;8.872;2023-06-26T04:09:27;8.68;;;7.75;;
32186;SDS011;18686;53.084;8.872;2023-06-26T04:11:56;10.18;;;7.78;;
32186;SDS011;18686;53.084;8.872;2023-06-26T04:14:24;10.13;;;7.90;;
32186;SDS011;18686;53.084;8.872;2023-06-26T04:16:52;9.60;;;7.72;;
32186;SDS011;18686;53.084;8.872;2023-06-26T04:19:21;10.75;;;7.47;;
32186;SDS011;18686;53.084;8.872;2023-06-26T04:21:49;7.93;;;7.13;;
32186;SDS011;18686;53.084;8.872;2023-06-26T04:24:17;8.82;;;7.32;;
32186;SDS011;18686;53.084;8.872;2023-06-26T04:26:47;8.38;;;7.35;;
32186;SDS011;18686;53.084;8.872;2023-06-26T04:29:15;7.78;;;6.97;;
32186;SDS011;18686;53.084;8.872;2023-06-26T04:31:44;15.57;;;7.53;;
32186;SDS011;18686;53.084;8.872;2023-06-26T04:34:13;9.13;;;7.30;;
32186;SDS011;18686;53.084;8.872;2023-06-26T04:36:41;9.85;;;7.05;;
32186;SDS011;18686;53.084;8.872;2023-06-26T04:39:14;8.18;;;7.35;;
32186;SDS011;18686;53.084;8.872;2023-06-26T04:41:43;10.10;;;7.03;;
32186;SDS011;18686;53.084;8.872;2023-06-26T04:44:13;12.02;;;7.18;;
32186;SDS011;18686;53.084;8.872;2023-06-26T04:46:42;7.65;;;6.85;;
32186;SDS011;18686;53.084;8.872;2023-06-26T04:49:11;9.73;;;7.05;;
32186;SDS011;18686;53.084;8.872;2023-06-26T04:51:39;8.43;;;7.15;;
32186;SDS011;18686;53.084;8.872;2023-06-26T04:54:08;9.45;;;7.15;;
32186;SDS011;18686;53.084;8.872;2023-06-26T04:56:37;8.45;;;6.43;;
32186;SDS011;18686;53.084;8.872;2023-06-26T04:59:06;11.50;;;7.53;;
32186;SDS011;18686;53.084;8.872;2023-06-26T05:01:41;9.70;;;7.50;;
32186;SDS011;18686;53.084;8.872;2023-06-26T05:04:14;10.05;;;7.30;;
32186;SDS011;18686;53.084;8.872;2023-06-26T05:06:43;7.97;;;7.10;;
32186;SDS011;18686;53.084;8.872;2023-06-26T05:09:11;8.25;;;6.82;;
32186;SDS011;18686;53.084;8.872;2023-06-26T05:11:40;9.80;;;7.50;;
32186;SDS011;18686;53.084;8.872;2023-06-26T05:14:08;13.20;;;7.50;;
32186;SDS011;18686;53.084;8.872;2023-06-26T05:16:37;12.15;;;7.10;;
32186;SDS011;18686;53.084;8.872;2023-06-26T05:19:06;9.57;;;7.50;;
32186;SDS011;18686;53.084;8.872;2023-06-26T05:21:35;13.75;;;7.82;;
32186;SDS011;18686;53.084;8.872;2023-06-26T05:24:04;7.53;;;6.80;;
32186;SDS011;18686;53.084;8.872;2023-06-26T05:26:34;7.60;;;6.80;;
32186;SDS011;18686;53.084;8.872;2023-06-26T05:29:02;10.93;;;6.70;;
32186;SDS011;18686;53.084;8.872;2023-06-26T05:31:31;9.07;;;6.57;;
32186;SDS011;18686;53.084;8.872;2023-06-26T05:34:04;7.60;;;5.90;;
32186;SDS011;18686;53.084;8.872;2023-06-26T05:36:34;10.65;;;7.35;;
32186;SDS011;18686;53.084;8.872;2023-06-26T05:39:03;8.10;;;6.07;;
32186;SDS011;18686;53.084;8.872;2023-06-26T05:41:32;10.50;;;7.00;;
32186;SDS011;18686;53.084;8.872;2023-06-26T05:44:03;8.60;;;6.82;;
32186;SDS011;18686;53.084;8.872;2023-06-26T05:46:31;7.53;;;6.15;;
32186;SDS011;18686;53.084;8.872;2023-06-26T05:48:59;16.63;;;7.10;;
32186;SDS011;18686;53.084;8.872;2023-06-26T05:51:30;11.27;;;6.85;;
32186;SDS011;18686;53.084;8.872;2023-06-26T05:53:59;11.60;;;6.88;;
32186;SDS011;18686;53.084;8.872;2023-06-26T05:56:27;7.47;;;6.60;;
32186;SDS011;18686;53.084;8.872;2023-06-26T05:58:56;9.20;;;6.20;;
32186;SDS011;18686;53.084;8.872;2023-06-26T06:01:26;8.00;;;6.10;;
32186;SDS011;18686;53.084;8.872;2023-06-26T06:03:54;7.47;;;6.38;;
32186;SDS011;18686;53.084;8.872;2023-06-26T06:06:23;9.50;;;6.07;;
32186;SDS011;18686;53.084;8.872;2023-06-26T06:08:52;6.97;;;6.28;;
32186;SDS011;18686;53.084;8.872;2023-06-26T06:11:20;7.07;;;6.00;;
32186;SDS011;18686;53.084;8.872;2023-06-26T06:13:49;6.78;;;5.78;;
32186;SDS011;18686;53.084;8.872;2023-06-26T06:16:17;14.10;;;5.90;;
32186;SDS011;18686;53.084;8.872;2023-06-26T06:18:45;9.57;;;5.97;;
32186;SDS011;18686;53.084;8.872;2023-06-26T06:21:14;8.18;;;6.00;;
32186;SDS011;18686;53.084;8.872;2023-06-26T06:23:42;7.40;;;6.32;;
32186;SDS011;18686;53.084;8.872;2023-06-26T06:26:11;8.35;;;6.20;;
32186;SDS011;18686;53.084;8.872;2023-06-26T06:28:40;7.30;;;5.85;;
32186;SDS011;18686;53.084;8.872;2023-06-26T06:31:08;5.68;;;4.90;;
32186;SDS011;18686;53.084;8.872;2023-06-26T06:33:36;5.85;;;5.25;;
32186;SDS011;18686;53.084;8.872;2023-06-26T06:36:04;7.97;;;6.13;;
32186;SDS011;18686;53.084;8.872;2023-06-26T06:38:33;6.78;;;5.80;;
32186;SDS011;18686;53.084;8.872;2023-06-26T06:41:01;13.23;;;5.82;;
32186;SDS011;18686;53.084;8.872;2023-06-26T06:43:31;7.30;;;5.53;;
32186;SDS011;18686;53.084;8.872;2023-06-26T06:45:59;8.02;;;6.22;;
32186;SDS011;18686;53.084;8.872;2023-06-26T06:48:27;8.65;;;5.72;;
32186;SDS011;18686;53.084;8.872;2023-06-26T06:50:55;6.47;;;5.70;;
32186;SDS011;18686;53.084;8.872;2023-06-26T06:53:24;6.50;;;5.63;;
32186;SDS011;18686;53.084;8.872;2023-06-26T06:55:52;6.80;;;6.03;;
32186;SDS011;18686;53.084;8.872;2023-06-26T06:58:21;10.90;;;6.63;;
32186;SDS011;18686;53.084;8.872;2023-06-26T07:00:50;7.05;;;6.35;;
32186;SDS011;18686;53.084;8.872;2023-06-26T07:03:19;6.35;;;5.72;;
32186;SDS011;18686;53.084;8.872;2023-06-26T07:05:48;10.60;;;7.68;;
32186;SDS011;18686;53.084;8.872;2023-06-26T07:08:16;7.75;;;6.35;;
32186;SDS011;18686;53.084;8.872;2023-06-26T07:10:45;6.47;;;5.88;;
32186;SDS011;18686;53.084;8.872;2023-06-26T07:13:13;7.22;;;5.75;;
32186;SDS011;18686;53.084;8.872;2023-06-26T07:15:42;8.45;;;6.18;;
32186;SDS011;18686;53.084;8.872;2023-06-26T07:18:11;8.30;;;6.15;;
32186;SDS011;18686;53.084;8.872;2023-06-26T07:20:40;9.75;;;6.95;;
32186;SDS011;18686;53.084;8.872;2023-06-26T07:23:08;9.10;;;7.07;;
32186;SDS011;18686;53.084;8.872;2023-06-26T07:25:37;8.20;;;7.03;;
32186;SDS011;18686;53.084;8.872;2023-06-26T07:28:09;8.00;;;6.38;;
32186;SDS011;18686;53.084;8.872;2023-06-26T07:30:38;8.30;;;6.35;;
32186;SDS011;18686;53.084;8.872;2023-06-26T07:33:06;8.50;;;6.68;;
32186;SDS011;18686;53.084;8.872;2023-06-26T07:35:36;7.47;;;6.72;;
32186;SDS011;18686;53.084;8.872;2023-06-26T07:38:04;6.93;;;5.95;;
32186;SDS011;18686;53.084;8.872;2023-06-26T07:40:32;11.07;;;6.72;;
32186;SDS011;18686;53.084;8.872;2023-06-26T07:43:01;7.10;;;6.40;;
32186;SDS011;18686;53.084;8.872;2023-06-26T07:45:31;6.30;;;5.53;;
32186;SDS011;18686;53.084;8.872;2023-06-26T07:47:59;6.57;;;5.97;;
32186;SDS011;18686;53.084;8.872;2023-06-26T07:50:27;8.32;;;6.05;;
32186;SDS011;18686;53.084;8.872;2023-06-26T07:52:56;6.75;;;5.78;;
32186;SDS011;18686;53.084;8.872;2023-06-26T07:55:25;8.50;;;6.10;;
32186;SDS011;18686;53.084;8.872;2023-06-26T07:57:53;5.85;;;5.25;;
32186;SDS011;18686;53.084;8.872;2023-06-26T08:00:22;6.75;;;5.80;;
32186;SDS011;18686;53.084;8.872;2023-06-26T08:02:51;7.00;;;5.05;;
32186;SDS011;18686;53.084;8.872;2023-06-26T08:05:20;7.75;;;5.80;;
32186;SDS011;18686;53.084;8.872;2023-06-26T08:07:48;10.05;;;6.00;;
32186;SDS011;18686;53.084;8.872;2023-06-26T08:10:18;9.15;;;6.25;;
32186;SDS011;18686;53.084;8.872;2023-06-26T08:12:46;10.10;;;6.05;;
32186;SDS011;18686;53.084;8.872;2023-06-26T08:15:16;10.25;;;6.38;;
32186;SDS011;18686;53.084;8.872;2023-06-26T08:17:45;6.72;;;6.03;;
32186;SDS011;18686;53.084;8.872;2023-06-26T08:20:13;10.27;;;7.03;;
32186;SDS011;18686;53.084;8.872;2023-06-26T08:22:41;8.98;;;6.20;;
32186;SDS011;18686;53.084;8.872;2023-06-26T08:25:10;7.88;;;5.85;;
32186;SDS011;18686;53.084;8.872;2023-06-26T08:27:40;7.20;;;5.43;;
32186;SDS011;18686;53.084;8.872;2023-06-26T08:30:08;7.25;;;5.72;;
32186;SDS011;18686;53.084;8.872;2023-06-26T08:32:37;21.13;;;6.40;;
32186;SDS011;18686;53.084;8.872;2023-06-26T08:35:06;14.07;;;5.68;;
32186;SDS011;18686;53.084;8.872;2023-06-26T08:37:36;9.73;;;5.50;;
32186;SDS011;18686;53.084;8.872;2023-06-26T08:40:05;7.55;;;5.05;;
32186;SDS011;18686;53.084;8.872;2023-06-26T08:42:35;9.02;;;5.78;;
32186;SDS011;18686;53.084;8.872;2023-06-26T08:45:05;7.28;;;5.35;;
32186;SDS011;18686;53.084;8.872;2023-06-26T08:47:34;7.90;;;5.75;;
32186;SDS011;18686;53.084;8.872;2023-06-26T08:50:07;9.43;;;5.90;;
32186;SDS011;18686;53.084;8.872;2023-06-26T08:52:37;26.52;;;7.95;;
32186;SDS011;18686;53.084;8.872;2023-06-26T08:55:11;15.00;;;7.40;;
32186;SDS011;18686;53.084;8.872;2023-06-26T08:57:42;10.15;;;6.57;;
32186;SDS011;18686;53.084;8.872;2023-06-26T09:00:15;13.38;;;7.40;;
32186;SDS011;18686;53.084;8.872;2023-06-26T09:02:44;10.18;;;8.07;;
32186;SDS011;18686;53.084;8.872;2023-06-26T09:05:13;11.65;;;8.35;;
32186;SDS011;18686;53.084;8.872;2023-06-26T09:07:41;9.80;;;8.25;;
32186;SDS011;18686;53.084;8.872;2023-06-26T09:10:10;15.13;;;9.93;;
32186;SDS011;18686;53.084;8.872;2023-06-26T09:12:40;14.38;;;10.60;;
32186;SDS011;18686;53.084;8.872;2023-06-26T09:15:15;13.18;;;9.45;;
32186;SDS011;18686;53.084;8.872;2023-06-26T09:17:47;13.80;;;10.45;;
32186;SDS011;18686;53.084;8.872;2023-06-26T09:20:16;13.68;;;12.27;;
32186;SDS011;18686;53.084;8.872;2023-06-26T09:22:47;15.65;;;12.75;;
32186;SDS011;18686;53.084;8.872;2023-06-26T09:25:15;14.60;;;12.30;;
32186;SDS011;18686;53.084;8.872;2023-06-26T09:27:44;25.15;;;14.27;;
32186;SDS011;18686;53.084;8.872;2023-06-26T09:30:16;17.25;;;12.85;;
32186;SDS011;18686;53.084;8.872;2023-06-26T09:32:45;16.23;;;11.40;;
32186;SDS011;18686;53.084;8.872;2023-06-26T09:35:13;15.23;;;10.52;;
32186;SDS011;18686;53.084;8.872;2023-06-26T09:37:42;12.25;;;8.70;;
32186;SDS011;18686;53.084;8.872;2023-06-26T09:40:11;11.95;;;7.25;;
32186;SDS011;18686;53.084;8.872;2023-06-26T09:42:41;7.95;;;5.80;;
32186;SDS011;18686;53.084;8.872;2023-06-26T09:45:14;11.57;;;5.93;;
32186;SDS011;18686;53.084;8.872;2023-06-26T09:47:47;12.23;;;6.20;;
32186;SDS011;18686;53.084;8.872;2023-06-26T09:50:21;10.45;;;5.25;;
32186;SDS011;18686;53.084;8.872;2023-06-26T09:52:52;9.43;;;5.72;;
32186;SDS011;18686;53.084;8.872;2023-06-26T09:55:20;7.45;;;4.35;;
32186;SDS011;18686;53.084;8.872;2023-06-26T09:57:49;9.55;;;4.88;;
32186;SDS011;18686;53.084;8.872;2023-06-26T10:00:19;12.32;;;5.13;;
32186;SDS011;18686;53.084;8.872;2023-06-26T10:02:48;8.40;;;4.40;;
32186;SDS011;18686;53.084;8.872;2023-06-26T10:05:16;8.82;;;3.60;;
32186;SDS011;18686;53.084;8.872;2023-06-26T10:07:45;8.82;;;4.10;;
32186;SDS011;18686;53.084;8.872;2023-06-26T10:10:14;5.55;;;3.30;;
32186;SDS011;18686;53.084;8.872;2023-06-26T10:12:44;6.53;;;3.00;;
32186;SDS011;18686;53.084;8.872;2023-06-26T10:15:16;5.68;;;2.83;;
32186;SDS011;18686;53.084;8.872;2023-06-26T10:17:46;6.22;;;2.80;;
32186;SDS011;18686;53.084;8.872;2023-06-26T10:20:16;8.50;;;3.00;;
32186;SDS011;18686;53.084;8.872;2023-06-26T10:22:45;5.60;;;2.50;;
32186;SDS011;18686;53.084;8.872;2023-06-26T10:25:16;7.05;;;2.60;;
32186;SDS011;18686;53.084;8.872;2023-06-26T10:27:47;6.78;;;2.50;;
32186;SDS011;18686;53.084;8.872;2023-06-26T10:30:19;4.70;;;2.67;;
32186;SDS011;18686;53.084;8.872;2023-06-26T10:32:51;7.20;;;2.70;;
32186;SDS011;18686;53.084;8.872;2023-06-26T10:35:20;2.97;;;1.90;;
32186;SDS011;18686;53.084;8.872;2023-06-26T10:37:49;6.13;;;2.20;;
32186;SDS011;18686;53.084;8.872;2023-06-26T10:40:21;7.57;;;2.25;;
32186;SDS011;18686;53.084;8.872;2023-06-26T10:43:03;5.03;;;2.35;;
32186;SDS011;18686;53.084;8.872;2023-06-26T10:45:35;5.13;;;2.20;;
32186;SDS011;18686;53.084;8.872;2023-06-26T10:48:05;6.35;;;1.80;;
32186;SDS011;18686;53.084;8.872;2023-06-26T10:50:33;6.13;;;2.10;;
32186;SDS011;18686;53.084;8.872;2023-06-26T10:53:07;3.42;;;1.67;;
32186;SDS011;18686;53.084;8.872;2023-06-26T10:55:37;7.50;;;1.73;;
32186;SDS011;18686;53.084;8.872;2023-06-26T11:01:13;6.70;;;1.98;;
32186;SDS011;18686;53.084;8.872;2023-06-26T11:03:46;5.80;;;2.28;;
32186;SDS011;18686;53.084;8.872;2023-06-26T11:06:20;3.55;;;1.50;;
32186;SDS011;18686;53.084;8.872;2023-06-26T11:08:49;5.93;;;1.67;;
32186;SDS011;18686;53.084;8.872;2023-06-26T11:11:20;3.78;;;1.67;;
32186;SDS011;18686;53.084;8.872;2023-06-26T11:13:49;4.75;;;2.17;;
32186;SDS011;18686;53.084;8.872;2023-06-26T11:16:18;4.40;;;1.48;;
32186;SDS011;18686;53.084;8.872;2023-06-26T11:18:47;3.25;;;1.50;;
32186;SDS011;18686;53.084;8.872;2023-06-26T11:21:17;3.40;;;1.70;;
32186;SDS011;18686;53.084;8.872;2023-06-26T11:23:48;4.10;;;1.67;;
32186;SDS011;18686;53.084;8.872;2023-06-26T11:26:17;5.32;;;1.60;;
32186;SDS011;18686;53.084;8.872;2023-06-26T11:28:48;1.95;;;1.30;;
32186;SDS011;18686;53.084;8.872;2023-06-26T11:31:24;2.78;;;1.80;;
32186;SDS011;18686;53.084;8.872;2023-06-26T11:33:54;3.95;;;1.45;;
32186;SDS011;18686;53.084;8.872;2023-06-26T11:36:23;6.45;;;1.50;;
32186;SDS011;18686;53.084;8.872;2023-06-26T11:38:52;2.28;;;1.42;;
32186;SDS011;18686;53.084;8.872;2023-06-26T11:41:22;4.63;;;1.55;;
32186;SDS011;18686;53.084;8.872;2023-06-26T11:43:51;2.50;;;1.40;;
32186;SDS011;18686;53.084;8.872;2023-06-26T11:46:20;4.68;;;1.50;;
32186;SDS011;18686;53.084;8.872;2023-06-26T11:48:49;2.35;;;1.10;;
32186;SDS011;18686;53.084;8.872;2023-06-26T11:51:20;3.03;;;1.40;;
32186;SDS011;18686;53.084;8.872;2023-06-26T11:53:48;2.33;;;1.20;;
32186;SDS011;18686;53.084;8.872;2023-06-26T11:56:18;3.53;;;1.40;;
32186;SDS011;18686;53.084;8.872;2023-06-26T11:58:55;3.80;;;1.50;;
32186;SDS011;18686;53.084;8.872;2023-06-26T12:01:25;4.43;;;1.50;;
32186;SDS011;18686;53.084;8.872;2023-06-26T12:03:58;3.00;;;1.63;;
32186;SDS011;18686;53.084;8.872;2023-06-26T12:06:31;2.45;;;1.40;;
32186;SDS011;18686;53.084;8.872;2023-06-26T12:09:02;2.67;;;1.50;;
32186;SDS011;18686;53.084;8.872;2023-06-26T12:11:32;3.38;;;1.58;;
32186;SDS011;18686;53.084;8.872;2023-06-26T12:14:02;2.92;;;1.50;;
32186;SDS011;18686;53.084;8.872;2023-06-26T12:16:32;5.38;;;1.33;;
32186;SDS011;18686;53.084;8.872;2023-06-26T12:19:02;3.28;;;1.40;;
32186;SDS011;18686;53.084;8.872;2023-06-26T12:21:45;2.88;;;1.30;;
32186;SDS011;18686;53.084;8.872;2023-06-26T12:24:19;3.00;;;1.40;;
32186;SDS011;18686;53.084;8.872;2023-06-26T12:26:50;3.13;;;1.48;;
32186;SDS011;18686;53.084;8.872;2023-06-26T12:29:20;3.95;;;1.52;;
32186;SDS011;18686;53.084;8.872;2023-06-26T12:31:49;3.40;;;1.30;;
32186;SDS011;18686;53.084;8.872;2023-06-26T12:34:20;3.60;;;1.20;;
32186;SDS011;18686;53.084;8.872;2023-06-26T12:36:52;4.35;;;1.50;;
32186;SDS011;18686;53.084;8.872;2023-06-26T12:39:21;3.47;;;1.20;;
32186;SDS011;18686;53.084;8.872;2023-06-26T12:41:51;2.78;;;1.30;;
32186;SDS011;18686;53.084;8.872;2023-06-26T12:44:21;2.50;;;1.27;;
32186;SDS011;18686;53.084;8.872;2023-06-26T12:46:54;5.30;;;1.55;;
32186;SDS011;18686;53.084;8.872;2023-06-26T12:49:29;4.35;;;1.30;;
32186;SDS011;18686;53.084;8.872;2023-06-26T12:52:00;2.88;;;1.30;;
32186;SDS011;18686;53.084;8.872;2023-06-26T12:54:31;2.83;;;1.40;;
32186;SDS011;18686;53.084;8.872;2023-06-26T12:57:01;5.82;;;1.60;;
32186;SDS011;18686;53.084;8.872;2023-06-26T12:59:30;4.63;;;1.45;;
32186;SDS011;18686;53.084;8.872;2023-06-26T13:01:59;2.90;;;1.60;;
32186;SDS011;18686;53.084;8.872;2023-06-26T13:04:27;5.20;;;1.50;;
32186;SDS011;18686;53.084;8.872;2023-06-26T13:06:56;3.55;;;1.40;;
32186;SDS011;18686;53.084;8.872;2023-06-26T13:09:26;7.38;;;1.55;;
32186;SDS011;18686;53.084;8.872;2023-06-26T13:11:54;6.30;;;1.70;;
32186;SDS011;18686;53.084;8.872;2023-06-26T13:14:22;3.63;;;1.20;;
32186;SDS011;18686;53.084;8.872;2023-06-26T13:16:50;6.13;;;1.60;;
32186;SDS011;18686;53.084;8.872;2023-06-26T13:19:19;2.60;;;1.17;;
32186;SDS011;18686;53.084;8.872;2023-06-26T13:21:47;1.38;;;1.20;;
32186;SDS011;18686;53.084;8.872;2023-06-26T13:24:15;4.40;;;1.38;;
32186;SDS011;18686;53.084;8.872;2023-06-26T13:26:45;2.30;;;1.20;;
32186;SDS011;18686;53.084;8.872;2023-06-26T13:29:13;4.45;;;1.65;;
32186;SDS011;18686;53.084;8.872;2023-06-26T13:31:42;4.07;;;1.25;;
32186;SDS011;18686;53.084;8.872;2023-06-26T13:34:19;1.85;;;1.30;;
32186;SDS011;18686;53.084;8.872;2023-06-26T13:36:48;6.15;;;1.10;;
32186;SDS011;18686;53.084;8.872;2023-06-26T13:39:16;1.95;;;1.15;;
32186;SDS011;18686;53.084;8.872;2023-06-26T13:41:46;2.90;;;1.48;;
32186;SDS011;18686;53.084;8.872;2023-06-26T13:44:14;2.97;;;1.63;;
32186;SDS011;18686;53.084;8.872;2023-06-26T13:49:25;2.80;;;1.40;;
32186;SDS011;18686;53.084;8.872;2023-06-26T13:51:53;3.05;;;1.45;;
32186;SDS011;18686;53.084;8.872;2023-06-26T13:54:22;3.83;;;1.60;;
32186;SDS011;18686;53.084;8.872;2023-06-26T13:56:51;2.55;;;1.52;;
32186;SDS011;18686;53.084;8.872;2023-06-26T13:59:24;3.22;;;1.40;;
32186;SDS011;18686;53.084;8.872;2023-06-26T14:01:54;4.60;;;1.73;;
32186;SDS011;18686;53.084;8.872;2023-06-26T14:04:22;3.72;;;1.42;;
32186;SDS011;18686;53.084;8.872;2023-06-26T14:06:50;7.53;;;1.70;;
32186;SDS011;18686;53.084;8.872;2023-06-26T14:09:19;6.55;;;1.63;;
32186;SDS011;18686;53.084;8.872;2023-06-26T14:11:47;2.67;;;1.50;;
32186;SDS011;18686;53.084;8.872;2023-06-26T14:14:17;6.78;;;1.92;;
32186;SDS011;18686;53.084;8.872;2023-06-26T14:16:45;3.72;;;1.65;;
32186;SDS011;18686;53.084;8.872;2023-06-26T14:19:16;3.50;;;1.70;;
32186;SDS011;18686;53.084;8.872;2023-06-26T14:21:45;4.97;;;2.40;;
32186;SDS011;18686;53.084;8.872;2023-06-26T14:24:13;3.40;;;1.75;;
32186;SDS011;18686;53.084;8.872;2023-06-26T14:26:41;2.38;;;1.60;;
32186;SDS011;18686;53.084;8.872;2023-06-26T14:29:10;5.07;;;2.00;;
32186;SDS011;18686;53.084;8.872;2023-06-26T14:31:40;6.43;;;1.48;;
32186;SDS011;18686;53.084;8.872;2023-06-26T14:34:09;3.42;;;1.63;;
32186;SDS011;18686;53.084;8.872;2023-06-26T14:36:37;4.38;;;1.85;;
32186;SDS011;18686;53.084;8.872;2023-06-26T14:39:05;4.75;;;1.80;;
32186;SDS011;18686;53.084;8.872;2023-06-26T14:41:34;3.53;;;1.75;;
32186;SDS011;18686;53.084;8.872;2023-06-26T14:44:03;4.55;;;1.67;;
32186;SDS011;18686;53.084;8.872;2023-06-26T14:46:35;3.50;;;1.63;;
32186;SDS011;18686;53.084;8.872;2023-06-26T14:49:04;5.05;;;1.73;;
32186;SDS011;18686;53.084;8.872;2023-06-26T14:51:33;4.45;;;1.90;;
32186;SDS011;18686;53.084;8.872;2023-06-26T14:54:01;11.05;;;1.63;;
32186;SDS011;18686;53.084;8.872;2023-06-26T14:56:30;4.07;;;1.70;;
32186;SDS011;18686;53.084;8.872;2023-06-26T14:58:58;4.70;;;1.58;;
32186;SDS011;18686;53.084;8.872;2023-06-26T15:01:26;5.57;;;1.83;;
32186;SDS011;18686;53.084;8.872;2023-06-26T15:03:56;5.43;;;1.60;;